Terminal Aerodrome Forecast
Issued by NWS Corpus Christi, TX

Home | Current Version | Previous Version | Text Only | Print | Product List | Glossary On
Versions: 1 2 3 4 5 6 7 8 9 10 11 12 13 14
166
FTUS44 KCRP 210529
TAFCRP
TAF
KCRP 210529Z 2106/2206 15012KT P6SM SCT020 BKN250
     FM210700 14006KT P6SM SCT015 BKN250
     FM211400 16013KT P6SM VCSH SCT025 BKN250
     FM211800 14014G20KT P6SM VCTS BKN035CB
     FM212300 13010KT P6SM FEW025=

USA.gov is the U.S. government's official web portal to all federal, state and local government web resources and services.